Time;durP1;ratioP1;P1;durP2;ratioP2;P2;SDS_P1;SDS_P2;PMS_P1;PMS_P2;Temp;Humidity;BMP_temperature;BMP_pressure;BME280_temperature;BME280_humidity;BME280_pressure;Samples;Min_cycle;Max_cycle;Signal;HPM_P1;HPM_P2
2023/06/24 00:03:37;;;;;;;0.10;0.10;;;;;;;-145.06;100.00;91763.94;10225756;28;20477;-77
2023/06/24 00:08:37;;;;;;;0.10;0.10;;;;;;;-145.06;100.00;91817.09;10258818;28;20031;-77
2023/06/24 00:13:37;;;;;;;0.10;0.10;;;;;;;-145.06;100.00;91837.53;10256787;28;20034;-77
2023/06/24 00:18:41;;;;;;;0.05;0.05;;;;;;;-145.06;100.00;91896.81;10236336;28;20086;-79
2023/06/24 00:23:43;;;;;;;0.10;0.10;;;;;;;-145.06;100.00;91927.50;10261360;28;20299;-76
2023/06/24 00:28:43;;;;;;;0.10;0.10;;;;;;;-145.06;100.00;91960.22;10261355;28;20041;-76
2023/06/24 00:33:43;;;;;;;0.10;0.10;;;;;;;-145.06;100.00;92005.19;10245016;28;20038;-79
2023/06/24 00:38:44;;;;;;;0.00;0.00;;;;;;;-145.06;100.00;92021.53;10232577;28;20026;-79
2023/06/24 00:43:45;;;;;;;0.20;0.20;;;;;;;-145.06;100.00;92076.75;10250357;28;20027;-79
2023/06/24 00:48:45;;;;;;;0.10;0.10;;;;;;;-145.06;100.00;92160.56;10268810;28;20488;-78
2023/06/24 00:53:46;;;;;;;0.10;0.10;;;;;;;-145.06;100.00;92146.25;10265772;28;20034;-77
2023/06/24 00:58:47;;;;;;;0.10;0.10;;;;;;;-145.06;100.00;92164.66;10263165;28;20019;-77
2023/06/24 01:03:48;;;;;;;0.10;0.10;;;;;;;-145.06;100.00;92219.88;10243497;28;20193;-77
2023/06/24 01:08:50;;;;;;;0.10;0.10;;;;;;;-145.06;100.00;92279.16;10254084;28;20026;-78
2023/06/24 01:13:51;;;;;;;0.10;0.10;;;;;;;-145.06;100.00;92266.91;10262588;28;20155;-78
2023/06/24 01:18:58;;;;;;;0.10;0.10;;;;;;;-145.06;100.00;92328.25;10253241;28;20027;-78
2023/06/24 01:24:29;;;;;;;0.10;0.10;;;;;;;-145.06;100.00;92377.31;10253048;28;20121;-78
2023/06/24 01:29:53;;;;;;;0.10;0.10;;;;;;;-145.06;100.00;92373.22;10255203;28;20034;-78
2023/06/24 01:34:59;;;;;;;0.10;0.10;;;;;;;-145.06;100.00;92389.59;10266697;28;20074;-77
2023/06/24 01:40:09;;;;;;;0.10;0.10;;;;;;;-145.06;100.00;92434.56;10256198;28;20037;-78
2023/06/24 01:45:16;;;;;;;0.00;0.00;;;;;;;-145.06;100.00;92455.00;10261440;28;20046;-78
2023/06/24 01:50:19;;;;;;;0.10;0.10;;;;;;;-145.06;100.00;92504.09;10238256;28;20476;-77
2023/06/24 01:55:21;;;;;;;0.10;0.10;;;;;;;-145.06;100.00;92483.63;10259969;28;20547;-77
2023/06/24 02:00:23;;;;;;;0.10;0.10;;;;;;;-145.06;100.00;92520.44;10261420;28;20101;-77
2023/06/24 02:05:25;;;;;;;0.10;0.10;;;;;;;-145.06;100.00;92520.44;10258440;28;20145;-78
2023/06/24 02:10:27;;;;;;;0.10;0.10;;;;;;;-145.06;100.00;92544.97;10251339;28;20026;-77
2023/06/24 02:15:28;;;;;;;0.10;0.10;;;;;;;-145.06;100.00;92606.34;10255818;28;20023;-77
2023/06/24 02:20:30;;;;;;;0.10;0.10;;;;;;;-145.06;100.00;92637.00;10257753;28;20027;-77
2023/06/24 02:25:32;;;;;;;0.10;0.10;;;;;;;-145.06;100.00;92677.91;10257562;28;20030;-78
2023/06/24 02:30:35;;;;;;;0.10;0.10;;;;;;;-145.06;100.00;92716.75;10258235;28;20090;-77
2023/06/24 02:35:35;;;;;;;0.10;0.10;;;;;;;-145.06;100.00;92792.41;10261246;28;20051;-79
2023/06/24 02:40:36;;;;;;;0.00;0.00;;;;;;;-145.06;100.00;92722.88;10246292;28;20058;-79
2023/06/24 02:45:36;;;;;;;0.10;0.10;;;;;;;-145.06;100.00;92759.69;10227674;28;20267;-76
2023/06/24 02:50:38;;;;;;;0.10;0.10;;;;;;;-145.06;100.00;92949.88;10247695;28;20263;-76
2023/06/24 02:55:41;;;;;;;0.10;0.10;;;;;;;-145.06;100.00;92923.28;10243462;28;20019;-76
2023/06/24 03:00:41;;;;;;;0.10;0.10;;;;;;;-145.06;100.00;92978.50;10252340;28;20477;-77
2023/06/24 03:05:44;;;;;;;0.00;0.00;;;;;;;-145.06;100.00;92958.06;10250434;28;20114;-77
2023/06/24 03:10:44;;;;;;;0.10;0.10;;;;;;;-145.06;100.00;92913.06;10260157;28;20037;-77
2023/06/24 03:15:45;;;;;;;0.10;0.10;;;;;;;-145.06;100.00;92283.25;10257676;28;20027;-79
2023/06/24 03:20:46;;;;;;;0.10;0.10;;;;;;;-145.06;100.00;92183.06;10251783;28;20484;-77
2023/06/24 03:25:46;;;;;;;0.10;0.10;;;;;;;-145.06;100.00;92123.78;10255912;28;20281;-76
2023/06/24 03:30:47;;;;;;;0.10;0.10;;;;;;;-145.06;100.00;91976.56;10233432;28;20395;-77
2023/06/24 03:35:47;;;;;;;0.10;0.10;;;;;;;-145.06;100.00;91862.06;10245171;28;20038;-76
2023/06/24 03:40:48;;;;;;;0.00;0.00;;;;;;;-145.06;100.00;91653.53;10250722;28;20035;-77
2023/06/24 03:45:48;;;;;;;0.10;0.10;;;;;;;-145.06;100.00;91731.22;10250129;28;20023;-77
2023/06/24 03:50:48;;;;;;;0.10;0.10;;;;;;;-145.06;100.00;91559.50;10245711;28;20019;-76
2023/06/24 03:55:48;;;;;;;0.10;0.10;;;;;;;-145.06;100.00;91408.22;10228475;28;20082;-76
2023/06/24 04:00:49;;;;;;;0.10;0.10;;;;;;;-145.06;100.00;91167.00;10246175;28;20069;-77
2023/06/24 04:05:49;;;;;;;0.10;0.10;;;;;;;-145.06;100.00;91001.44;10245165;28;20170;-78
2023/06/24 04:10:50;;;;;;;0.10;0.10;;;;;;;-145.06;100.00;90829.75;10245461;28;20031;-78
2023/06/24 04:15:50;;;;;;;0.00;0.00;;;;;;;-145.06;100.00;90764.34;10240076;28;20031;-77
2023/06/24 04:20:50;;;;;;;0.00;0.00;;;;;;;-145.06;100.00;90551.78;10245581;28;20035;-77
2023/06/24 04:25:51;;;;;;;0.10;0.10;;;;;;;-145.06;97.80;90404.63;10251016;28;20027;-78
2023/06/24 04:30:51;;;;;;;0.00;0.00;;;;;;;-145.06;91.89;90218.66;10245488;28;20019;-78
2023/06/24 04:35:52;;;;;;;0.00;0.00;;;;;;;-145.06;89.94;90247.25;10256537;28;20051;-78
2023/06/24 04:40:53;;;;;;;0.10;0.10;;;;;;;-145.06;86.83;90010.19;10252318;28;20039;-77
2023/06/24 04:45:54;;;;;;;0.00;0.00;;;;;;;-145.06;85.04;89897.81;10253249;28;20307;-78
2023/06/24 04:50:55;;;;;;;0.00;0.00;;;;;;;-145.06;78.21;89748.63;10259139;28;20012;-78
2023/06/24 04:55:56;;;;;;;0.00;0.00;;;;;;;-145.06;77.84;89658.72;10253573;28;20019;-78
2023/06/24 05:00:56;;;;;;;0.00;0.00;;;;;;;-145.06;71.34;89470.75;10264908;28;20027;-78
2023/06/24 05:05:56;;;;;;;0.10;0.10;;;;;;;-145.06;71.90;89540.22;10252111;28;20098;-78
2023/06/24 05:10:57;;;;;;;0.00;0.00;;;;;;;-145.06;73.25;89597.44;10270703;28;20011;-78
2023/06/24 05:15:57;;;;;;;0.10;0.10;;;;;;;-145.06;72.40;89583.13;10260456;28;20031;-78
2023/06/24 05:20:57;;;;;;;0.00;0.00;;;;;;;-145.06;70.69;89389.00;10273092;28;20282;-79
2023/06/24 05:25:57;;;;;;;0.10;0.10;;;;;;;-145.06;69.23;89233.72;10262089;28;20027;-78
2023/06/24 05:30:58;;;;;;;0.10;0.10;;;;;;;-145.06;64.07;89262.34;10403751;23;20128;-78
2023/06/24 05:35:58;;;;;;;0.10;0.10;;;;;;;-145.06;62.04;89053.94;10414408;28;20026;-78
2023/06/24 05:40:59;;;;;;;0.00;0.00;;;;;;;-145.06;61.67;89025.34;10416400;28;20041;-78
2023/06/24 05:46:00;;;;;;;0.10;0.10;;;;;;;-145.06;59.77;88757.72;10417190;28;20478;-78
2023/06/24 05:51:00;;;;;;;0.00;0.00;;;;;;;-145.06;56.49;88665.78;10408849;28;20010;-78
2023/06/24 05:56:00;;;;;;;0.05;0.05;;;;;;;-145.06;53.80;88547.28;10409998;28;20071;-78
2023/06/24 06:01:01;;;;;;;0.00;0.00;;;;;;;-145.06;51.47;88543.22;10413048;28;20022;-78
2023/06/24 06:06:02;;;;;;;0.10;0.10;;;;;;;-145.06;47.70;88351.19;10413177;28;20032;-76
2023/06/24 06:11:02;;;;;;;;;;;;;;;-145.06;49.65;88371.63;10400843;28;20045;-76
2023/06/24 06:16:03;;;;;;;0.10;0.10;;;;;;;-145.06;48.60;88361.41;10409933;28;19909;-78
2023/06/24 06:21:03;;;;;;;0.10;0.10;;;;;;;-145.06;50.41;89025.34;10405583;28;20542;-77
2023/06/24 06:26:04;;;;;;;0.10;0.10;;;;;;;-145.06;47.43;88428.81;10404450;28;21143;-77
2023/06/24 06:31:04;;;;;;;0.10;0.10;;;;;;;-145.06;46.50;88273.56;10399816;28;21001;-77
2023/06/24 06:36:04;;;;;;;0.10;0.10;;;;;;;-145.06;45.35;88247.00;10410148;28;20029;-77
2023/06/24 06:41:05;;;;;;;0.10;0.10;;;;;;;-145.06;45.35;88187.78;10406070;28;20037;-77
2023/06/24 06:46:05;;;;;;;0.10;0.10;;;;;;;-145.06;44.55;88091.78;10398035;28;20017;-77
2023/06/24 06:51:05;;;;;;;0.10;0.10;;;;;;;-145.06;44.02;88079.53;10388834;28;20018;-77
2023/06/24 06:56:06;;;;;;;0.10;0.10;;;;;;;-145.06;42.84;88093.81;10403194;28;20025;-77
2023/06/24 07:01:06;;;;;;;0.10;0.10;;;;;;;-145.06;45.67;88163.25;10397970;28;20044;-77
2023/06/24 07:06:06;;;;;;;0.10;0.10;;;;;;;-145.06;47.25;88236.78;10407296;28;20018;-77
2023/06/24 07:11:06;;;;;;;0.10;0.10;;;;;;;-145.06;46.95;88234.75;10394181;28;20033;-77
2023/06/24 07:16:07;;;;;;;0.10;0.10;;;;;;;-145.06;44.20;88191.88;10396543;28;20025;-77
2023/06/24 07:21:07;;;;;;;0.10;0.10;;;;;;;-145.06;45.97;88277.66;10397278;28;20033;-77
2023/06/24 07:26:07;;;;;;;0.10;0.10;;;;;;;-145.06;53.22;88759.75;10403417;28;20396;-77
2023/06/24 07:31:08;;;;;;;0.10;0.10;;;;;;;-145.06;50.30;88892.53;10390678;28;20386;-77
2023/06/24 07:36:08;;;;;;;0.00;0.00;;;;;;;-145.06;50.70;88821.03;10401429;28;20493;-77
2023/06/24 07:41:08;;;;;;;0.10;0.10;;;;;;;-145.06;49.98;88819.00;10397800;28;20021;-76
2023/06/24 07:46:09;;;;;;;0.00;0.00;;;;;;;-145.06;48.77;88819.00;10399549;28;20036;-76
2023/06/24 07:51:09;;;;;;;0.10;0.10;;;;;;;-145.06;50.21;88727.06;10398035;28;20036;-77
2023/06/24 07:56:09;;;;;;;0.00;0.00;;;;;;;-145.06;47.30;88769.97;10387157;28;20025;-77
2023/06/24 08:01:10;;;;;;;0.00;0.00;;;;;;;-145.06;46.87;88669.88;10388907;28;20113;-77
2023/06/24 08:06:10;;;;;;;0.10;0.10;;;;;;;-145.06;45.09;88208.19;10412613;28;20033;-77
2023/06/24 08:11:10;;;;;;;0.00;0.00;;;;;;;-145.06;41.61;87997.81;10411224;28;20033;-77
2023/06/24 08:16:10;;;;;;;0.00;0.00;;;;;;;-145.06;42.79;88204.13;10405223;28;20029;-77
2023/06/24 08:21:11;;;;;;;0.00;0.00;;;;;;;-145.06;42.18;88110.16;10397860;28;20025;-77
2023/06/24 08:26:11;;;;;;;0.10;0.10;;;;;;;-145.06;43.57;88220.47;10406354;28;20025;-78
2023/06/24 08:31:11;;;;;;;0.00;0.00;;;;;;;-145.06;45.33;88234.75;10404934;28;20033;-77
2023/06/24 08:36:12;;;;;;;0.00;0.00;;;;;;;-145.06;43.88;88204.13;10414621;28;20584;-77
2023/06/24 08:41:12;;;;;;;0.00;0.00;;;;;;;-145.06;43.55;88169.38;10415065;28;20021;-77
2023/06/24 08:46:15;;;;;;;0.00;0.00;;;;;;;-145.06;43.77;88151.00;10407500;28;20450;-78
2023/06/24 08:51:23;;;;;;;0.00;0.00;;;;;;;-145.06;46.23;88251.09;10405884;28;20585;-77
2023/06/24 08:56:24;;;;;;;0.10;0.10;;;;;;;-145.06;44.24;88204.13;10414108;28;20536;-77
2023/06/24 09:01:26;;;;;;;0.10;0.10;;;;;;;-145.06;46.13;88226.59;10408871;28;20072;-77
2023/06/24 09:06:27;;;;;;;0.10;0.10;;;;;;;-145.06;45.21;88210.25;10411462;28;20359;-77
2023/06/24 09:11:28;;;;;;;0.00;0.00;;;;;;;-145.06;47.57;88304.22;10398848;28;20017;-77
2023/06/24 09:16:29;;;;;;;0.00;0.00;;;;;;;-145.06;49.24;88326.69;10401404;28;20018;-77
2023/06/24 09:21:30;;;;;;;0.00;0.00;;;;;;;-145.06;47.47;88294.00;10397588;28;20116;-77
2023/06/24 09:26:31;;;;;;;0.10;0.10;;;;;;;-145.06;48.66;88379.78;10404481;28;20025;-77
2023/06/24 09:31:31;;;;;;;0.00;0.00;;;;;;;-145.06;49.11;88406.34;10419183;28;20029;-78
2023/06/24 09:36:32;;;;;;;0.00;0.00;;;;;;;-145.06;50.16;88351.19;10412484;28;20024;-77
2023/06/24 09:41:32;;;;;;;0.10;0.10;;;;;;;-145.06;47.18;88249.06;10423443;28;20037;-78
2023/06/24 09:46:34;;;;;;;0.00;0.00;;;;;;;-145.06;47.36;88302.16;10411973;28;20017;-77
2023/06/24 09:51:39;;;;;;;0.00;0.00;;;;;;;-145.06;49.11;88312.38;10421678;28;20033;-77
2023/06/24 09:56:49;;;;;;;0.10;0.10;;;;;;;-145.06;48.84;88289.91;10411524;28;20060;-78
2023/06/24 10:01:52;;;;;;;0.10;0.10;;;;;;;-145.06;49.72;88343.03;10419952;28;20104;-78
2023/06/24 10:06:52;;;;;;;0.00;0.00;;;;;;;-145.06;49.19;88363.44;10423508;28;20056;-77
2023/06/24 10:11:53;;;;;;;0.00;0.00;;;;;;;-145.06;49.59;88392.03;10412798;28;20103;-78
2023/06/24 10:17:03;;;;;;;0.00;0.00;;;;;;;-145.06;50.78;88390.00;10411948;28;20032;-78
2023/06/24 10:22:09;;;;;;;0.00;0.00;;;;;;;-145.06;52.17;88394.09;10421872;28;20029;-77
2023/06/24 10:27:15;;;;;;;0.00;0.00;;;;;;;-145.06;50.35;88359.34;10418504;28;20017;-78
2023/06/24 10:32:18;;;;;;;0.00;0.00;;;;;;;-145.06;53.13;88387.97;10422944;28;20021;-78
2023/06/24 10:37:30;;;;;;;0.00;0.00;;;;;;;-145.06;49.44;88338.94;10409340;28;20064;-78
2023/06/24 10:42:33;;;;;;;0.10;0.10;;;;;;;-145.06;48.87;88375.69;10412747;28;20026;-78
2023/06/24 10:47:34;;;;;;;0.10;0.10;;;;;;;-145.06;48.70;88240.88;10401878;28;20120;-77
2023/06/24 10:52:43;;;;;;;0.00;0.00;;;;;;;-145.06;47.39;88414.50;10415673;28;20120;-77
2023/06/24 10:57:44;;;;;;;0.00;0.00;;;;;;;-145.06;48.03;88849.63;10409186;28;20029;-77
2023/06/24 11:02:45;;;;;;;0.00;0.00;;;;;;;-145.06;50.91;88563.63;10412798;28;20116;-77
2023/06/24 11:07:45;;;;;;;0.10;0.10;;;;;;;-145.06;52.04;88539.13;10411668;28;20616;-77
2023/06/24 11:12:47;;;;;;;0.00;0.00;;;;;;;-145.06;52.09;88467.63;10413593;28;20049;-77
2023/06/24 11:17:51;;;;;;;0.00;0.00;;;;;;;-145.06;47.99;88451.28;10410330;28;20471;-77
2023/06/24 11:22:51;;;;;;;0.00;0.00;;;;;;;-145.06;47.47;88457.41;10412044;28;20144;-77
2023/06/24 11:27:54;;;;;;;0.00;0.00;;;;;;;-145.06;48.53;88794.47;10407746;28;20029;-77
2023/06/24 11:32:54;;;;;;;0.10;0.10;;;;;;;-145.06;47.05;88663.72;10410165;28;20045;-77
2023/06/24 11:37:58;;;;;;;0.10;0.10;;;;;;;-145.06;51.06;88757.72;10403840;28;20108;-77
2023/06/24 11:43:00;;;;;;;0.00;0.00;;;;;;;-145.06;47.71;88802.66;10410504;28;20031;-77
2023/06/24 11:48:07;;;;;;;0.00;0.00;;;;;;;-145.06;51.94;88620.84;10410616;28;20052;-77
2023/06/24 11:53:08;;;;;;;0.00;0.00;;;;;;;-145.06;51.16;88608.56;10409989;28;20014;-78
2023/06/24 11:58:09;;;;;;;0.00;0.00;;;;;;;-145.06;49.47;88559.56;10409197;28;20386;-77
2023/06/24 12:03:11;;;;;;;0.00;0.00;;;;;;;-145.06;45.58;88436.97;10408823;28;20022;-78
2023/06/24 12:08:15;;;;;;;0.00;0.00;;;;;;;-145.06;47.51;88727.06;10404359;28;20036;-78
2023/06/24 12:13:15;;;;;;;0.10;0.10;;;;;;;-145.06;45.99;88616.75;10405258;28;20626;-78
2023/06/24 12:18:15;;;;;;;0.00;0.00;;;;;;;-145.06;47.93;88714.81;10401709;28;20021;-78
2023/06/24 12:23:16;;;;;;;0.00;0.00;;;;;;;-145.06;48.21;88694.38;10410682;28;20059;-77
2023/06/24 12:28:16;;;;;;;0.00;0.00;;;;;;;-145.06;45.96;88645.34;10408074;28;20037;-78
2023/06/24 12:33:19;;;;;;;0.00;0.00;;;;;;;-145.06;48.01;88520.75;10414661;28;20264;-78
2023/06/24 12:38:19;;;;;;;0.00;0.00;;;;;;;-145.06;50.99;88504.41;10402377;28;20425;-77
2023/06/24 12:43:23;;;;;;;0.00;0.00;;;;;;;-145.06;48.28;88639.22;10404141;28;20026;-78
2023/06/24 12:48:24;;;;;;;0.10;0.10;;;;;;;-145.06;51.31;88469.66;10406707;28;20068;-78
2023/06/24 12:53:24;;;;;;;0.00;0.00;;;;;;;-145.06;45.69;88371.63;10409207;28;20014;-78
2023/06/24 12:58:26;;;;;;;0.10;0.10;;;;;;;-145.06;45.67;88361.41;10401279;28;20083;-78
2023/06/24 13:03:35;;;;;;;;;;;;;;;-145.06;44.39;88510.53;10407834;28;20022;-77
2023/06/24 13:08:35;;;;;;;0.00;0.00;;;;;;;-145.06;45.69;88530.94;10409348;28;20357;-78
2023/06/24 13:13:36;;;;;;;0.00;0.00;;;;;;;-145.06;44.31;88457.41;10407700;28;20030;-78
2023/06/24 13:18:36;;;;;;;0.00;0.00;;;;;;;-145.06;46.50;88447.19;10405825;28;20025;-77
2023/06/24 13:23:38;;;;;;;0.07;0.07;;;;;;;-145.06;44.81;88428.81;10402149;28;20036;-78
2023/06/24 13:28:39;;;;;;;0.10;0.10;;;;;;;-145.06;43.62;88543.22;10418042;28;20026;-78
2023/06/24 13:33:39;;;;;;;0.00;0.00;;;;;;;-145.06;44.09;88800.59;10416670;28;20018;-78
2023/06/24 13:38:39;;;;;;;0.00;0.00;;;;;;;-145.06;45.61;88868.03;10408582;28;20030;-78
2023/06/24 13:43:40;;;;;;;0.00;0.00;;;;;;;-145.06;47.71;88594.28;10406432;28;20375;-77
2023/06/24 13:48:41;;;;;;;0.10;0.10;;;;;;;-145.06;46.08;88692.34;10420901;28;20045;-78
2023/06/24 13:53:41;;;;;;;0.10;0.10;;;;;;;-145.06;46.66;88767.91;10433574;28;20025;-78
2023/06/24 13:58:42;;;;;;;0.00;0.00;;;;;;;-145.06;47.24;88796.53;10424668;28;20122;-76
2023/06/24 14:03:43;;;;;;;0.00;0.00;;;;;;;-145.06;45.22;88622.88;10420132;28;20025;-78
2023/06/24 14:08:44;;;;;;;0.00;0.00;;;;;;;-145.06;44.92;88874.16;10412897;28;20474;-77
2023/06/24 14:13:45;;;;;;;0.00;0.00;;;;;;;-145.06;46.63;88727.06;10419052;28;20029;-78
2023/06/24 14:18:45;;;;;;;0.00;0.00;;;;;;;-145.06;46.13;88604.50;10425355;28;20025;-78
2023/06/24 14:23:45;;;;;;;0.00;0.00;;;;;;;-145.06;45.62;88833.28;10410626;28;20041;-77
2023/06/24 14:28:46;;;;;;;0.00;0.00;;;;;;;-145.06;46.26;88980.38;10413670;28;20084;-77
2023/06/24 14:33:46;;;;;;;0.00;0.00;;;;;;;-145.06;48.36;89086.63;10393800;28;20022;-77
2023/06/24 14:38:46;;;;;;;0.00;0.00;;;;;;;-145.06;48.48;89182.66;10412098;28;20025;-77
2023/06/24 14:43:47;;;;;;;0.00;0.00;;;;;;;-145.06;49.95;89241.91;10405015;28;20124;-77
2023/06/24 14:48:47;;;;;;;0.00;0.00;;;;;;;-145.06;51.38;89156.09;10411508;28;20120;-77
2023/06/24 14:53:47;;;;;;;0.00;0.00;;;;;;;-145.06;53.39;89266.41;10416598;28;20018;-78
2023/06/24 14:58:47;;;;;;;0.00;0.00;;;;;;;-145.06;52.20;89233.72;10410825;28;20038;-78
2023/06/24 15:03:48;;;;;;;0.00;0.00;;;;;;;-145.06;53.09;89288.91;10415973;28;20055;-77
2023/06/24 15:08:48;;;;;;;0.10;0.10;;;;;;;-145.06;54.26;89380.84;10413060;28;20039;-77
2023/06/24 15:13:48;;;;;;;0.00;0.00;;;;;;;-145.06;54.27;89362.44;10421465;28;20021;-77
2023/06/24 15:18:49;;;;;;;0.10;0.10;;;;;;;-145.06;55.13;89421.69;10419044;28;20030;-77
2023/06/24 15:23:50;;;;;;;0.00;0.00;;;;;;;-145.06;55.92;89409.44;10401884;28;20029;-77
2023/06/24 15:28:50;;;;;;;0.00;0.00;;;;;;;-145.06;57.61;89368.59;10401794;28;20026;-77
2023/06/24 15:33:50;;;;;;;0.00;0.00;;;;;;;-145.06;58.77;89237.81;10412265;28;20029;-77
2023/06/24 15:38:51;;;;;;;0.00;0.00;;;;;;;-145.06;57.40;89221.47;10398365;28;20033;-77
2023/06/24 15:43:51;;;;;;;0.00;0.00;;;;;;;-145.06;57.41;89237.81;10401326;28;20033;-77
2023/06/24 15:48:51;;;;;;;0.10;0.10;;;;;;;-145.06;57.41;89319.53;10407915;28;20033;-77
2023/06/24 15:53:51;;;;;;;0.00;0.00;;;;;;;-145.06;56.73;89292.97;10410644;28;20056;-77
2023/06/24 15:58:52;;;;;;;0.00;0.00;;;;;;;-145.06;56.08;89348.16;10405950;28;20029;-76
2023/06/24 16:03:53;;;;;;;0.00;0.00;;;;;;;-145.06;58.92;89317.50;10396540;28;20394;-76
2023/06/24 16:08:53;;;;;;;0.10;0.10;;;;;;;-145.06;58.92;89143.84;10407856;28;20022;-77
2023/06/24 16:13:53;;;;;;;0.00;0.00;;;;;;;-145.06;57.64;89049.84;10402092;28;20022;-76
2023/06/24 16:18:54;;;;;;;0.00;0.00;;;;;;;-145.06;55.98;89084.59;10401885;28;20024;-77
2023/06/24 16:23:54;;;;;;;0.00;0.00;;;;;;;-145.06;58.23;89066.19;10406854;28;20104;-77
2023/06/24 16:28:55;;;;;;;0.00;0.00;;;;;;;-145.06;55.59;89147.91;10409600;28;20292;-77
2023/06/24 16:33:56;;;;;;;0.00;0.00;;;;;;;-145.06;55.78;89292.97;10409974;28;20401;-77
2023/06/24 16:38:56;;;;;;;0.00;0.00;;;;;;;-145.06;56.53;89344.06;10413596;28;20036;-77
2023/06/24 16:43:56;;;;;;;0.00;0.00;;;;;;;-145.06;56.11;89368.59;10418640;28;20026;-77
2023/06/24 16:48:59;;;;;;;0.10;0.10;;;;;;;-145.06;57.29;89417.63;10417803;28;20033;-77
2023/06/24 16:53:59;;;;;;;;;;;;;;;-145.06;57.54;89421.69;10416673;28;20083;-76
2023/06/24 16:58:59;;;;;;;0.00;0.00;;;;;;;-145.06;59.83;89497.31;10407075;28;19991;-77
2023/06/24 17:03:59;;;;;;;0.10;0.10;;;;;;;-145.06;61.94;89530.00;10411485;28;20070;-76
2023/06/24 17:09:00;;;;;;;0.00;0.00;;;;;;;-145.06;63.78;89572.91;10413881;28;20397;-77
2023/06/24 17:14:00;;;;;;;0.00;0.00;;;;;;;-145.06;65.31;89646.47;10403517;28;20497;-77
2023/06/24 17:19:00;;;;;;;0.00;0.00;;;;;;;-145.06;67.08;89666.91;10406127;28;20264;-77
2023/06/24 17:24:01;;;;;;;0.00;0.00;;;;;;;-145.06;67.06;89658.72;10403740;28;20013;-76
2023/06/24 17:29:02;;;;;;;0.00;0.00;;;;;;;-145.06;67.75;89689.38;10400716;28;20032;-76
2023/06/24 17:34:02;;;;;;;0.00;0.00;;;;;;;-145.06;68.46;89695.50;10412603;28;20067;-76
2023/06/24 17:39:02;;;;;;;0.00;0.00;;;;;;;-145.06;69.33;89738.41;10409562;28;20014;-76
2023/06/24 17:44:03;;;;;;;0.00;0.00;;;;;;;-145.06;67.79;89728.19;10409482;28;20030;-77
2023/06/24 17:49:03;;;;;;;0.10;0.10;;;;;;;-145.06;67.92;89773.16;10411414;28;20014;-76
2023/06/24 17:54:03;;;;;;;0.00;0.00;;;;;;;-145.06;69.20;89775.19;10407970;28;20022;-76
2023/06/24 17:59:04;;;;;;;0.10;0.10;;;;;;;-145.06;67.34;89781.34;10403759;28;20034;-78
2023/06/24 18:04:04;;;;;;;0.00;0.00;;;;;;;-145.06;67.10;89777.25;10407977;28;20032;-77
2023/06/24 18:09:04;;;;;;;0.00;0.00;;;;;;;-145.06;67.00;89793.59;10404092;28;20021;-78
2023/06/24 18:14:04;;;;;;;0.00;0.00;;;;;;;-145.06;67.47;89846.72;10394677;28;20467;-77
2023/06/24 18:19:05;;;;;;;0.00;0.00;;;;;;;-145.06;68.00;89834.47;10401165;28;20390;-77
2023/06/24 18:24:06;;;;;;;0.00;0.00;;;;;;;-145.06;67.29;89826.28;10399906;28;20021;-77
2023/06/24 18:29:06;;;;;;;0.00;0.00;;;;;;;-145.06;67.49;89842.63;10410938;28;20033;-77
2023/06/24 18:34:06;;;;;;;0.10;0.10;;;;;;;-145.06;67.76;89854.91;10410069;28;20021;-78
2023/06/24 18:39:06;;;;;;;0.00;0.00;;;;;;;-145.06;67.21;89854.91;10395829;28;20036;-77
2023/06/24 18:44:08;;;;;;;0.05;0.05;;;;;;;-145.06;67.59;89877.38;10450619;22;20064;-79
2023/06/24 18:49:08;;;;;;;0.10;0.10;;;;;;;-145.06;69.60;89928.47;10413698;28;20033;-78
2023/06/24 18:54:09;;;;;;;0.00;0.00;;;;;;;-145.06;70.01;89908.03;10437287;28;20024;-77
2023/06/24 18:59:09;;;;;;;0.00;0.00;;;;;;;-145.06;70.79;89950.94;10410965;28;20290;-79
2023/06/24 19:04:09;;;;;;;0.10;0.10;;;;;;;-145.06;72.43;89967.28;10431997;28;20029;-79
2023/06/24 19:09:09;;;;;;;0.00;0.00;;;;;;;-145.06;76.21;90002.03;10432778;28;20028;-78
2023/06/24 19:14:10;;;;;;;0.00;0.00;;;;;;;-145.06;75.91;90020.41;10426078;28;20028;-78
2023/06/24 19:19:10;;;;;;;0.10;0.10;;;;;;;-145.06;83.95;90073.56;10443969;28;20025;-79
2023/06/24 19:24:10;;;;;;;0.00;0.00;;;;;;;-145.06;84.32;90085.81;10431776;28;20025;-79
2023/06/24 19:29:11;;;;;;;0.00;0.00;;;;;;;-145.06;90.41;90183.91;10441084;28;20028;-79
2023/06/24 19:34:11;;;;;;;0.00;0.00;;;;;;;-145.06;90.58;90206.38;10429101;28;20032;-79
2023/06/24 19:39:11;;;;;;;0.03;0.03;;;;;;;-145.06;93.46;90251.34;10433837;28;20021;-79
2023/06/24 19:44:12;;;;;;;0.00;0.00;;;;;;;-145.06;95.97;90247.25;10430141;28;20052;-79
2023/06/24 19:49:12;;;;;;;0.10;0.10;;;;;;;-145.06;93.90;90237.03;10435023;28;20037;-79
2023/06/24 19:54:12;;;;;;;0.00;0.00;;;;;;;-145.06;99.85;90286.09;10437822;28;20016;-79
2023/06/24 19:59:13;;;;;;;0.10;0.10;;;;;;;-145.06;96.34;90314.69;10435696;28;20455;-79
2023/06/24 20:04:13;;;;;;;0.00;0.00;;;;;;;-145.06;98.79;90324.91;10428320;28;20016;-79
2023/06/24 20:09:13;;;;;;;0.00;0.00;;;;;;;-145.06;97.98;90373.97;10439666;28;20072;-78
2023/06/24 20:14:13;;;;;;;0.10;0.10;;;;;;;-145.06;97.33;90388.28;10441336;28;20398;-79
2023/06/24 20:19:14;;;;;;;0.00;0.00;;;;;;;-145.06;98.77;90398.50;10438317;28;20032;-78
2023/06/24 20:24:14;;;;;;;0.00;0.00;;;;;;;-145.06;97.92;90404.63;10439167;28;20028;-77
2023/06/24 20:29:14;;;;;;;0.00;0.00;;;;;;;-145.06;97.46;90398.50;10441826;28;20425;-78
2023/06/24 20:34:15;;;;;;;0.10;0.10;;;;;;;-145.06;98.08;90406.66;10444906;28;20025;-78
2023/06/24 20:39:15;;;;;;;0.10;0.10;;;;;;;-145.06;98.27;90467.97;10432172;28;20032;-78
2023/06/24 20:44:15;;;;;;;0.00;0.00;;;;;;;-145.06;100.00;90443.44;10429478;28;20382;-76
2023/06/24 20:49:16;;;;;;;0.10;0.10;;;;;;;-145.06;99.62;90492.50;10412579;28;20625;-74
2023/06/24 20:54:16;;;;;;;0.00;0.00;;;;;;;-145.06;99.83;90496.59;10412263;28;20289;-76
2023/06/24 20:59:16;;;;;;;0.10;0.10;;;;;;;-145.06;99.38;90423.00;10431882;28;20020;-76
2023/06/24 21:04:16;;;;;;;0.10;0.10;;;;;;;-145.06;99.57;90496.59;10433891;28;20021;-76
2023/06/24 21:09:17;;;;;;;0.10;0.10;;;;;;;-145.06;99.37;90478.19;10428364;28;20021;-76
2023/06/24 21:14:18;;;;;;;0.10;0.10;;;;;;;-145.06;99.16;90494.56;10435402;28;20036;-76
2023/06/24 21:19:18;;;;;;;0.00;0.00;;;;;;;-145.06;100.00;90488.41;10427845;28;20013;-76
2023/06/24 21:24:19;;;;;;;0.00;0.00;;;;;;;-145.06;100.00;90465.94;10437829;28;20303;-76
2023/06/24 21:29:19;;;;;;;0.00;0.00;;;;;;;-145.06;100.00;90508.84;10439433;28;20114;-76
2023/06/24 21:34:19;;;;;;;0.10;0.10;;;;;;;-145.06;100.00;90533.38;10435794;28;20260;-76
2023/06/24 21:39:19;;;;;;;0.10;0.10;;;;;;;-145.06;100.00;90559.94;10438931;28;20089;-76
2023/06/24 21:44:20;;;;;;;0.10;0.10;;;;;;;-145.06;100.00;90535.44;10433106;28;20398;-76
2023/06/24 21:49:20;;;;;;;0.10;0.10;;;;;;;-145.06;100.00;90545.66;10439102;28;20394;-76
2023/06/24 21:54:20;;;;;;;0.10;0.10;;;;;;;-145.06;100.00;90600.81;10441679;28;20017;-76
2023/06/24 21:59:21;;;;;;;0.00;0.00;;;;;;;-145.06;100.00;90627.41;10436776;28;20029;-76
2023/06/24 22:04:22;;;;;;;0.10;0.10;;;;;;;-145.06;100.00;90627.41;10414795;28;20021;-76
2023/06/24 22:09:23;;;;;;;0.10;0.10;;;;;;;-145.06;100.00;90694.84;10435413;28;20028;-75
2023/06/24 22:14:23;;;;;;;0.00;0.00;;;;;;;-145.06;100.00;90700.97;10415563;28;20022;-75
2023/06/24 22:19:23;;;;;;;0.08;0.08;;;;;;;-145.06;100.00;90698.94;10437853;28;20021;-76
2023/06/24 22:24:24;;;;;;;0.00;0.00;;;;;;;-145.06;100.00;90707.09;10434950;28;20032;-75
2023/06/24 22:29:24;;;;;;;0.00;0.00;;;;;;;-145.06;100.00;90748.00;10430999;28;20112;-76
2023/06/24 22:34:24;;;;;;;0.07;0.07;;;;;;;-145.06;100.00;90735.72;10435501;28;20247;-75
2023/06/24 22:39:25;;;;;;;0.10;0.10;;;;;;;-145.06;100.00;90733.69;10432307;28;20021;-76
2023/06/24 22:44:25;;;;;;;0.10;0.10;;;;;;;-145.06;100.00;90723.47;10434197;28;20044;-76